Time;durP1;ratioP1;P1;durP2;ratioP2;P2;SDS_P1;SDS_P2;PMS_P1;PMS_P2;Temp;Humidity;BMP_temperature;BMP_pressure;BME280_temperature;BME280_humidity;BME280_pressure;Samples;Min_cycle;Max_cycle;Signal;HPM_P1;HPM_P2
2021/07/15 00:02:40;;;;;;;12.95;11.75;;;22.70;98.30;;;;;;5960602;39;20052;-71
2021/07/15 00:06:42;;;;;;;12.27;11.07;;;22.80;98.50;;;;;;5959772;39;20066;-72
2021/07/15 00:10:51;;;;;;;13.80;12.20;;;22.80;98.40;;;;;;5969831;39;20157;-72
2021/07/15 00:14:53;;;;;;;15.57;12.70;;;22.90;98.30;;;;;;5961704;39;20054;-72
2021/07/15 00:18:56;;;;;;;13.10;11.75;;;22.90;98.20;;;;;;5963766;39;20385;-72
2021/07/15 00:22:57;;;;;;;14.15;12.85;;;22.90;98.30;;;;;;5964769;39;20040;-72
2021/07/15 00:26:59;;;;;;;17.23;14.57;;;22.90;98.10;;;;;;5972782;39;20419;-73
2021/07/15 00:31:02;;;;;;;14.43;13.02;;;22.80;98.20;;;;;;5965733;39;20099;-72
2021/07/15 00:35:06;;;;;;;13.80;12.40;;;22.70;98.50;;;;;;5974281;39;20044;-72
2021/07/15 00:39:08;;;;;;;15.00;13.50;;;22.70;98.40;;;;;;5974614;39;20067;-73
2021/07/15 00:43:10;;;;;;;14.65;13.18;;;22.70;98.30;;;;;;5974496;39;20539;-73
2021/07/15 00:47:12;;;;;;;;;;;22.70;98.30;;;;;;5975284;39;20050;-73
2021/07/15 00:51:14;;;;;;;;;;;22.50;99.80;;;;;;5971545;39;19935;-72
2021/07/15 00:55:29;;;;;;;;;;;22.50;99.90;;;;;;5955263;39;19949;-72
2021/07/15 00:59:31;;;;;;;16.30;14.13;;;22.50;99.90;;;;;;5961542;39;19948;-72
2021/07/15 01:03:33;;;;;;;15.23;12.43;;;22.50;98.30;;;;;;5969913;39;20046;-72
2021/07/15 01:07:35;;;;;;;14.57;13.05;;;22.40;98.50;;;;;;5965016;39;20032;-73
2021/07/15 01:11:58;;;;;;;15.73;14.05;;;22.40;98.50;;;;;;5953991;39;20054;-72
2021/07/15 01:16:19;;;;;;;15.20;13.60;;;22.30;98.70;;;;;;5961578;39;20060;-72
2021/07/15 01:20:33;;;;;;;17.67;15.40;;;22.30;99.00;;;;;;5969610;39;20044;-71
2021/07/15 01:25:00;;;;;;;17.65;15.85;;;22.20;99.30;;;;;;5969832;39;20136;-72
2021/07/15 01:29:30;;;;;;;17.90;14.75;;;22.10;99.70;;;;;;5966385;39;20355;-75
2021/07/15 01:33:36;;;;;;;17.67;15.23;;;22.00;99.90;;;;;;5968646;39;20146;-74
2021/07/15 01:37:41;;;;;;;19.70;16.30;;;21.90;99.90;;;;;;5972343;39;20111;-72
2021/07/15 01:41:48;;;;;;;17.48;15.52;;;21.80;99.90;;;;;;5972831;39;20043;-72
2021/07/15 01:45:51;;;;;;;18.27;16.38;;;21.80;99.90;;;;;;5972095;39;20083;-72
2021/07/15 01:49:58;;;;;;;19.13;17.13;;;21.70;99.90;;;;;;5954581;39;20028;-72
2021/07/15 01:54:01;;;;;;;19.42;17.42;;;21.60;99.90;;;;;;5962300;39;20111;-73
2021/07/15 01:58:03;;;;;;;18.48;15.43;;;21.70;99.90;;;;;;5967028;39;20047;-73
2021/07/15 02:02:06;;;;;;;21.15;17.98;;;21.70;99.90;;;;;;5971216;39;20083;-74
2021/07/15 02:06:10;;;;;;;24.60;18.30;;;21.70;99.90;;;;;;5974502;39;20247;-74
2021/07/15 02:10:19;;;;;;;22.52;17.73;;;21.70;99.90;;;;;;5962218;39;20320;-74
2021/07/15 02:14:23;;;;;;;20.30;18.13;;;21.50;99.90;;;;;;5963957;39;20063;-74
2021/07/15 02:18:27;;;;;;;18.40;16.58;;;21.30;99.90;;;;;;5964310;39;20052;-75
2021/07/15 02:22:29;;;;;;;21.50;18.38;;;21.30;99.90;;;;;;5967969;39;20063;-73
2021/07/15 02:26:33;;;;;;;17.80;15.70;;;21.20;99.90;;;;;;5968270;39;20044;-73
2021/07/15 02:30:36;;;;;;;18.02;16.15;;;21.20;99.90;;;;;;5969194;39;20060;-73
2021/07/15 02:34:37;;;;;;;18.75;16.10;;;21.30;99.90;;;;;;5971993;39;20635;-74
2021/07/15 02:38:42;;;;;;;21.63;16.73;;;21.20;99.90;;;;;;5961345;39;20096;-74
2021/07/15 02:42:45;;;;;;;17.83;16.02;;;21.30;99.90;;;;;;5960064;39;20774;-74
2021/07/15 02:46:47;;;;;;;19.70;17.70;;;21.30;99.90;;;;;;5972213;39;20117;-73
2021/07/15 02:50:49;;;;;;;;;;;21.30;99.90;;;;;;5970689;39;20434;-73
2021/07/15 02:54:51;;;;;;;20.50;18.38;;;21.30;99.90;;;;;;5962080;39;20871;-73
2021/07/15 02:59:05;;;;;;;19.70;17.60;;;21.30;99.90;;;;;;5962749;39;20062;-74
2021/07/15 03:03:15;;;;;;;20.05;18.05;;;21.30;99.90;;;;;;5966336;39;20093;-75
2021/07/15 03:07:22;;;;;;;21.48;19.23;;;21.30;99.90;;;;;;5965257;39;20091;-74
2021/07/15 03:11:36;;;;;;;18.70;16.65;;;21.40;99.90;;;;;;5961532;39;20043;-75
2021/07/15 03:15:41;;;;;;;17.42;15.73;;;21.40;99.90;;;;;;5959399;39;20094;-75
2021/07/15 03:19:46;;;;;;;17.10;15.38;;;21.30;99.90;;;;;;5969454;39;20044;-75
2021/07/15 03:23:50;;;;;;;17.20;15.35;;;21.30;99.90;;;;;;5964374;39;20243;-75
2021/07/15 03:27:56;;;;;;;15.85;14.20;;;21.40;99.90;;;;;;5972821;39;20125;-74
2021/07/15 03:31:59;;;;;;;17.73;15.65;;;21.40;99.90;;;;;;5961967;39;20043;-75
2021/07/15 03:36:04;;;;;;;16.55;14.38;;;21.40;99.90;;;;;;5969218;39;20059;-74
2021/07/15 03:40:08;;;;;;;15.98;14.27;;;21.30;99.90;;;;;;5969040;39;20062;-74
2021/07/15 03:44:10;;;;;;;16.30;14.25;;;21.20;99.90;;;;;;5962976;39;20047;-75
2021/07/15 03:48:13;;;;;;;14.32;12.93;;;21.10;99.90;;;;;;5973881;39;20394;-74
2021/07/15 03:52:17;;;;;;;14.73;13.23;;;21.10;99.90;;;;;;5967906;39;20048;-75
2021/07/15 03:56:20;;;;;;;16.50;13.82;;;21.20;99.90;;;;;;5973011;39;20133;-75
2021/07/15 04:00:25;;;;;;;15.95;14.35;;;21.20;99.90;;;;;;5958587;39;20047;-75
2021/07/15 04:04:29;;;;;;;15.25;13.65;;;21.20;99.90;;;;;;5966794;39;20130;-75
2021/07/15 04:08:35;;;;;;;15.65;14.05;;;21.10;99.90;;;;;;5967299;39;20312;-74
2021/07/15 04:12:40;;;;;;;16.05;13.63;;;21.10;99.90;;;;;;5961142;39;20094;-75
2021/07/15 04:17:05;;;;;;;14.52;13.00;;;21.20;99.90;;;;;;5973046;39;20068;-74
2021/07/15 04:21:07;;;;;;;15.52;13.23;;;21.10;99.90;;;;;;5965438;39;20422;-74
2021/07/15 04:25:13;;;;;;;14.43;12.88;;;21.00;99.90;;;;;;5969275;39;21335;-74
2021/07/15 04:29:18;;;;;;;14.40;12.98;;;21.10;99.90;;;;;;5973297;39;20113;-75
2021/07/15 04:33:21;;;;;;;13.25;11.68;;;21.20;99.90;;;;;;5973613;39;20424;-74
2021/07/15 04:37:23;;;;;;;14.00;12.50;;;21.20;99.90;;;;;;5965344;39;20040;-74
2021/07/15 04:41:26;;;;;;;18.90;12.40;;;21.20;99.90;;;;;;5974345;39;20052;-75
2021/07/15 04:45:28;;;;;;;13.18;11.77;;;21.30;99.90;;;;;;5962891;39;20083;-74
2021/07/15 04:49:30;;;;;;;16.30;11.38;;;21.30;99.90;;;;;;5961373;39;20126;-74
2021/07/15 04:53:32;;;;;;;14.18;12.50;;;21.30;99.90;;;;;;5948127;39;20130;-74
2021/07/15 04:57:36;;;;;;;13.75;12.18;;;21.60;99.90;;;;;;5964194;39;20043;-74
2021/07/15 05:01:39;;;;;;;13.40;11.95;;;21.20;99.90;;;;;;5963057;39;20060;-74
2021/07/15 05:05:41;;;;;;;17.17;10.85;;;21.10;99.90;;;;;;5955148;39;20366;-74
2021/07/15 05:09:42;;;;;;;;;;;21.10;99.90;;;;;;5962204;39;20127;-74
2021/07/15 05:13:44;;;;;;;15.98;11.30;;;21.10;99.90;;;;;;5953187;39;19994;-75
2021/07/15 05:17:46;;;;;;;13.23;10.88;;;21.20;99.90;;;;;;5972176;39;20555;-74
2021/07/15 05:21:49;;;;;;;13.35;11.95;;;21.30;99.90;;;;;;5971979;39;20057;-74
2021/07/15 05:25:53;;;;;;;13.93;10.90;;;21.40;99.90;;;;;;5973937;39;20047;-75
2021/07/15 05:29:56;;;;;;;13.73;11.13;;;21.40;99.90;;;;;;5963380;39;20060;-75
2021/07/15 05:33:57;;;;;;;;;;;21.50;99.90;;;;;;5971400;39;20067;-74
2021/07/15 05:38:00;;;;;;;14.10;11.77;;;21.50;99.90;;;;;;5971368;39;20229;-75
2021/07/15 05:42:02;;;;;;;13.48;11.25;;;21.50;99.90;;;;;;5953151;39;20071;-74
2021/07/15 05:46:04;;;;;;;13.15;11.75;;;21.50;99.90;;;;;;5971835;39;20040;-74
2021/07/15 05:50:06;;;;;;;12.55;11.25;;;21.50;99.90;;;;;;5962238;39;20047;-75
2021/07/15 05:54:08;;;;;;;13.85;11.45;;;21.50;99.90;;;;;;5970859;39;20419;-74
2021/07/15 05:58:10;;;;;;;;;;;21.50;99.90;;;;;;5975234;39;20047;-74
2021/07/15 06:02:12;;;;;;;12.57;10.90;;;21.50;99.90;;;;;;5972323;39;19993;-74
2021/07/15 06:06:15;;;;;;;14.93;11.27;;;21.60;99.90;;;;;;5968498;39;20288;-74
2021/07/15 06:10:17;;;;;;;11.80;10.57;;;21.50;99.90;;;;;;5955216;39;20109;-76
2021/07/15 06:14:19;;;;;;;;;;;22.50;99.90;;;;;;5965398;39;20510;-76
2021/07/15 06:18:21;;;;;;;14.50;10.57;;;21.50;99.90;;;;;;5961868;39;19943;-77
2021/07/15 06:22:23;;;;;;;11.85;10.20;;;21.50;99.90;;;;;;5967108;39;20055;-76
2021/07/15 06:26:25;;;;;;;11.55;10.27;;;21.60;99.90;;;;;;5971293;39;20527;-81
2021/07/15 06:30:27;;;;;;;12.35;10.60;;;21.60;99.90;;;;;;5960370;39;20047;-76
2021/07/15 06:34:28;;;;;;;13.13;9.65;;;21.70;99.90;;;;;;5968732;39;20047;-79
2021/07/15 06:38:31;;;;;;;;;;;21.80;99.90;;;;;;5962702;39;20032;-78
2021/07/15 06:42:34;;;;;;;12.75;10.75;;;21.90;99.90;;;;;;5974895;39;19964;-79
2021/07/15 06:46:38;;;;;;;11.88;10.60;;;22.00;99.90;;;;;;5966215;39;20443;-80
2021/07/15 06:50:42;;;;;;;12.80;11.50;;;22.20;99.90;;;;;;5973349;39;20133;-76
2021/07/15 06:54:44;;;;;;;13.98;10.60;;;22.20;99.90;;;;;;5971154;39;20059;-79
2021/07/15 06:58:47;;;;;;;13.43;10.63;;;22.30;99.90;;;;;;5971807;39;20050;-77
2021/07/15 07:02:49;;;;;;;13.88;12.35;;;22.40;99.90;;;;;;5975545;39;20063;-78
2021/07/15 07:06:50;;;;;;;12.70;10.95;;;22.40;99.90;;;;;;5958558;39;20105;-77
2021/07/15 07:10:52;;;;;;;;;;;22.60;99.90;;;;;;5975506;39;20410;-77
2021/07/15 07:14:54;;;;;;;11.27;10.00;;;22.60;99.90;;;;;;5976768;39;19951;-77
2021/07/15 07:18:56;;;;;;;12.70;10.60;;;22.60;99.90;;;;;;5963460;39;20054;-77
2021/07/15 07:23:06;;;;;;;12.43;9.93;;;23.20;99.90;;;;;;5967392;39;20735;-78
2021/07/15 07:27:08;;;;;;;12.85;9.95;;;22.90;99.90;;;;;;5971480;39;20071;-77
2021/07/15 07:31:10;;;;;;;11.75;10.50;;;22.90;99.90;;;;;;5964071;39;20039;-77
2021/07/15 07:35:13;;;;;;;11.45;10.23;;;22.90;99.90;;;;;;5974652;39;20091;-77
2021/07/15 07:39:16;;;;;;;13.98;10.52;;;23.00;99.90;;;;;;5974655;39;20101;-78
2021/07/15 07:43:17;;;;;;;11.13;9.75;;;23.00;99.90;;;;;;5971445;39;20044;-78
2021/07/15 07:47:19;;;;;;;12.13;9.93;;;23.00;99.90;;;;;;5970728;39;20073;-72
2021/07/15 07:51:21;;;;;;;12.15;9.60;;;23.20;99.90;;;;;;5962715;39;20042;-71
2021/07/15 07:55:24;;;;;;;11.55;9.82;;;23.40;99.90;;;;;;5960231;39;20063;-72
2021/07/15 07:59:26;;;;;;;11.75;8.43;;;23.60;99.90;;;;;;5972661;39;20054;-71
2021/07/15 08:03:28;;;;;;;10.75;8.45;;;23.80;99.50;;;;;;5954156;39;20367;-71
2021/07/15 08:07:30;;;;;;;10.00;8.93;;;24.00;99.40;;;;;;5965149;39;20048;-73
2021/07/15 08:11:32;;;;;;;10.77;8.80;;;24.20;99.10;;;;;;5969513;39;20282;-73
2021/07/15 08:15:34;;;;;;;13.80;8.70;;;24.30;98.90;;;;;;5965805;39;20041;-72
2021/07/15 08:19:37;;;;;;;9.52;7.95;;;24.40;98.30;;;;;;5957169;39;20043;-72
2021/07/15 08:23:39;;;;;;;9.43;8.43;;;24.50;98.60;;;;;;5972949;39;20047;-72
2021/07/15 08:27:41;;;;;;;9.02;7.80;;;24.70;98.10;;;;;;5973082;39;20390;-71
2021/07/15 08:31:43;;;;;;;8.52;7.20;;;24.90;97.40;;;;;;5972593;39;20032;-72
2021/07/15 08:35:45;;;;;;;8.25;7.45;;;25.10;97.10;;;;;;5968055;39;20055;-71
2021/07/15 08:39:47;;;;;;;8.35;7.47;;;25.20;97.00;;;;;;5963379;39;20368;-72
2021/07/15 08:43:50;;;;;;;9.48;7.60;;;25.30;97.20;;;;;;5959231;39;20058;-72
2021/07/15 08:47:55;;;;;;;7.55;6.70;;;25.40;96.60;;;;;;5964177;39;20079;-72
2021/07/15 08:51:57;;;;;;;8.25;6.75;;;25.50;95.90;;;;;;5974814;39;20051;-73
2021/07/15 09:00:19;;;;;;;8.80;6.00;;;25.60;95.20;;;;;;5966885;39;20052;-72
2021/07/15 09:04:23;;;;;;;8.27;5.90;;;25.70;95.10;;;;;;5973633;39;20044;-72
2021/07/15 09:08:24;;;;;;;8.90;6.25;;;25.80;94.60;;;;;;5962542;39;20677;-72
2021/07/15 09:12:26;;;;;;;7.68;6.10;;;26.00;95.00;;;;;;5977192;39;20084;-72
2021/07/15 09:16:30;;;;;;;6.45;5.82;;;26.20;94.70;;;;;;5974520;39;20062;-72
2021/07/15 09:20:32;;;;;;;7.80;6.13;;;26.30;94.20;;;;;;5965697;39;20474;-72
2021/07/15 09:24:44;;;;;;;6.00;5.40;;;26.40;94.00;;;;;;5973661;39;20130;-73
2021/07/15 09:28:47;;;;;;;7.93;5.55;;;26.50;94.30;;;;;;5974129;39;20510;-72
2021/07/15 09:32:51;;;;;;;5.72;5.13;;;26.70;93.40;;;;;;5974350;39;20113;-72
2021/07/15 09:36:53;;;;;;;6.82;5.15;;;26.90;92.80;;;;;;5960118;39;20043;-72
2021/07/15 09:41:01;;;;;;;6.68;4.75;;;27.10;93.10;;;;;;5969240;39;20165;-71
2021/07/15 09:45:09;;;;;;;6.55;4.70;;;27.30;92.80;;;;;;5971639;39;20460;-71
2021/07/15 09:49:11;;;;;;;7.15;4.47;;;27.50;91.50;;;;;;5974647;39;20389;-72
2021/07/15 09:53:18;;;;;;;5.53;4.28;;;27.60;91.00;;;;;;5961822;39;20056;-72
2021/07/15 09:57:30;;;;;;;9.32;3.92;;;27.80;91.30;;;;;;5975212;39;20051;-71
2021/07/15 10:01:31;;;;;;;5.55;4.30;;;27.80;90.80;;;;;;5959840;39;20071;-73
2021/07/15 10:05:35;;;;;;;8.75;5.55;;;27.70;91.20;;;;;;5966338;39;20117;-72
2021/07/15 10:09:37;;;;;;;5.75;4.63;;;27.70;91.20;;;;;;5963409;39;20059;-77
2021/07/15 10:13:40;;;;;;;6.72;4.78;;;27.80;91.30;;;;;;5973311;39;20042;-78
2021/07/15 10:17:46;;;;;;;9.32;5.60;;;27.90;91.50;;;;;;5956032;39;20054;-76
2021/07/15 10:21:57;;;;;;;6.97;5.40;;;28.00;91.50;;;;;;5972578;39;20396;-75
2021/07/15 10:26:00;;;;;;;8.55;5.93;;;28.00;91.30;;;;;;5958575;39;20051;-76
2021/07/15 10:30:03;;;;;;;6.60;5.60;;;28.00;91.90;;;;;;5970195;39;20043;-76
2021/07/15 10:34:05;;;;;;;7.63;5.68;;;27.90;91.90;;;;;;5971694;39;20291;-77
2021/07/15 10:38:07;;;;;;;7.68;5.70;;;27.90;92.10;;;;;;5960832;39;20109;-76
2021/07/15 10:42:10;;;;;;;8.02;5.60;;;27.90;91.60;;;;;;5968433;39;20079;-77
2021/07/15 10:46:12;;;;;;;8.60;6.30;;;27.80;91.90;;;;;;5970853;39;20457;-78
2021/07/15 10:50:14;;;;;;;8.07;6.10;;;27.80;92.00;;;;;;5968347;39;20054;-79
2021/07/15 10:54:17;;;;;;;12.88;6.88;;;27.70;92.00;;;;;;5970096;39;20980;-78
2021/07/15 10:58:45;;;;;;;8.80;6.43;;;27.80;92.30;;;;;;5966872;39;20052;-78
2021/07/15 11:02:47;;;;;;;9.45;6.45;;;27.80;90.90;;;;;;5963827;39;20377;-76
2021/07/15 11:06:51;;;;;;;6.78;6.03;;;28.00;92.30;;;;;;5972617;39;20048;-77
2021/07/15 11:10:59;;;;;;;7.55;6.20;;;28.00;91.60;;;;;;5961641;39;20303;-75
2021/07/15 11:15:07;;;;;;;6.80;6.10;;;27.80;92.20;;;;;;5959085;39;20676;-75
2021/07/15 11:19:12;;;;;;;9.40;6.25;;;27.80;91.90;;;;;;5963555;39;20064;-75
2021/07/15 11:23:15;;;;;;;7.25;6.03;;;27.80;91.90;;;;;;5962992;39;20052;-76
2021/07/15 11:27:56;;;;;;;10.63;6.25;;;27.70;91.90;;;;;;5954993;39;20620;-73
2021/07/15 11:31:58;;;;;;;7.00;5.95;;;27.80;90.60;;;;;;5955088;39;20298;-73
2021/07/15 11:36:13;;;;;;;7.78;6.15;;;28.00;91.60;;;;;;5965759;39;20485;-74
2021/07/15 11:40:36;;;;;;;10.10;6.65;;;28.20;90.30;;;;;;5967712;39;20048;-74
2021/07/15 11:44:57;;;;;;;9.02;6.22;;;28.30;91.10;;;;;;5969668;39;20349;-74
2021/07/15 11:49:06;;;;;;;9.15;7.13;;;28.20;89.90;;;;;;5955021;39;20046;-74
2021/07/15 11:53:14;;;;;;;7.82;6.40;;;28.20;91.30;;;;;;5945379;39;20144;-74
2021/07/15 11:57:19;;;;;;;12.13;5.88;;;28.20;91.30;;;;;;5968582;39;20046;-74
2021/07/15 12:01:29;;;;;;;9.35;6.47;;;28.40;91.20;;;;;;5968822;39;20141;-73
2021/07/15 12:05:33;;;;;;;7.37;6.17;;;28.60;91.00;;;;;;5967186;39;20064;-73
2021/07/15 12:09:35;;;;;;;8.43;6.15;;;28.60;90.80;;;;;;5967054;39;20649;-73
2021/07/15 12:13:38;;;;;;;9.40;5.75;;;28.40;91.00;;;;;;5958930;39;20059;-73
2021/07/15 12:17:41;;;;;;;8.32;6.78;;;28.50;90.80;;;;;;5965302;39;20398;-73
2021/07/15 12:21:43;;;;;;;8.50;6.40;;;28.60;90.40;;;;;;5972025;39;20062;-72
2021/07/15 12:25:47;;;;;;;9.63;6.50;;;28.60;90.70;;;;;;5951968;39;20107;-73
2021/07/15 12:29:57;;;;;;;8.90;6.43;;;28.50;90.60;;;;;;5966805;39;20433;-73
2021/07/15 12:34:07;;;;;;;8.80;6.10;;;28.60;90.70;;;;;;5965481;39;20070;-73
2021/07/15 12:38:18;;;;;;;10.60;6.57;;;28.50;90.40;;;;;;5959102;39;21020;-73
2021/07/15 12:42:22;;;;;;;8.00;5.40;;;28.50;89.80;;;;;;5961115;39;20519;-73
2021/07/15 12:46:34;;;;;;;7.85;5.45;;;28.50;90.40;;;;;;5955839;39;20126;-73
2021/07/15 12:50:40;;;;;;;8.48;5.18;;;28.60;88.70;;;;;;5970102;39;20032;-72
2021/07/15 12:54:48;;;;;;;8.32;5.00;;;28.60;89.60;;;;;;5962562;39;20588;-72
2021/07/15 12:59:07;;;;;;;21.42;6.30;;;28.30;89.80;;;;;;5955454;39;20051;-73
2021/07/15 13:03:09;;;;;;;8.82;6.13;;;28.20;88.40;;;;;;5945119;39;20524;-73
2021/07/15 13:07:21;;;;;;;7.85;5.10;;;28.10;90.50;;;;;;5970239;39;20059;-73
2021/07/15 13:15:55;;;;;;;8.10;5.40;;;28.20;89.80;;;;;;5966744;39;20051;-73
2021/07/15 13:20:13;;;;;;;7.63;5.78;;;28.20;90.20;;;;;;5966046;39;20048;-73
2021/07/15 13:24:30;;;;;;;6.93;5.20;;;28.30;90.40;;;;;;5966965;39;20075;-73
2021/07/15 13:28:32;;;;;;;8.30;5.65;;;28.60;88.60;;;;;;5963276;39;20055;-72
2021/07/15 13:32:34;;;;;;;6.63;5.20;;;28.70;89.30;;;;;;5959299;39;20044;-73
2021/07/15 13:36:58;;;;;;;7.82;5.13;;;28.50;89.20;;;;;;5960274;39;20047;-72
2021/07/15 13:41:00;;;;;;;7.78;5.47;;;28.30;90.10;;;;;;5973547;39;20072;-73
2021/07/15 13:45:10;;;;;;;9.77;5.78;;;28.40;90.00;;;;;;5967217;39;20062;-74
2021/07/15 13:49:11;;;;;;;8.82;5.50;;;28.30;89.20;;;;;;5967503;39;20209;-73
2021/07/15 13:53:15;;;;;;;6.95;5.40;;;28.30;88.80;;;;;;5968254;39;20084;-73
2021/07/15 13:57:18;;;;;;;7.35;5.22;;;28.30;89.00;;;;;;5965703;39;20067;-72
2021/07/15 14:01:28;;;;;;;7.75;5.03;;;28.30;89.20;;;;;;5961766;39;20036;-73
2021/07/15 14:05:41;;;;;;;9.05;5.10;;;28.30;88.80;;;;;;5969325;39;20600;-73
2021/07/15 14:09:45;;;;;;;6.22;5.13;;;28.30;88.90;;;;;;5960510;39;20071;-72
2021/07/15 14:13:48;;;;;;;8.38;4.90;;;28.20;88.90;;;;;;5955886;39;20068;-72
2021/07/15 14:18:08;;;;;;;6.55;5.25;;;28.30;88.80;;;;;;5969006;39;20093;-73
2021/07/15 14:22:10;;;;;;;6.13;5.03;;;28.30;87.10;;;;;;5960174;39;20064;-73
2021/07/15 14:26:11;;;;;;;10.82;5.60;;;28.30;88.60;;;;;;5957275;39;20064;-73
2021/07/15 14:30:20;;;;;;;7.68;5.15;;;28.40;88.60;;;;;;5970412;39;20047;-73
2021/07/15 14:34:21;;;;;;;6.70;5.60;;;28.50;88.70;;;;;;5963671;39;20055;-73
2021/07/15 14:38:23;;;;;;;9.00;5.20;;;28.50;87.90;;;;;;5956858;39;20059;-73
2021/07/15 14:42:25;;;;;;;6.55;4.88;;;28.50;88.30;;;;;;5965009;39;20070;-73
2021/07/15 14:46:27;;;;;;;5.75;4.78;;;28.50;87.70;;;;;;5956825;39;20055;-73
2021/07/15 14:50:29;;;;;;;10.00;4.70;;;28.50;87.70;;;;;;5965545;39;20075;-73
2021/07/15 14:54:49;;;;;;;7.60;4.93;;;28.60;87.80;;;;;;5965325;39;20051;-73
2021/07/15 14:58:51;;;;;;;8.25;5.20;;;28.60;86.90;;;;;;5969142;39;20711;-73
2021/07/15 15:02:54;;;;;;;7.47;4.85;;;28.50;88.20;;;;;;5968575;39;20063;-73
2021/07/15 15:06:56;;;;;;;6.05;4.53;;;28.70;87.70;;;;;;5955539;39;20142;-73
2021/07/15 15:10:58;;;;;;;4.90;4.22;;;28.70;87.20;;;;;;5958556;39;20058;-73
2021/07/15 15:15:01;;;;;;;6.95;4.43;;;28.90;86.90;;;;;;5964251;39;20110;-72
2021/07/15 15:19:03;;;;;;;8.68;4.80;;;28.90;86.20;;;;;;5967665;39;20385;-73
2021/07/15 15:23:05;;;;;;;6.32;4.65;;;28.70;86.10;;;;;;5957618;39;20075;-73
2021/07/15 15:27:07;;;;;;;8.43;5.13;;;28.70;85.90;;;;;;5962260;39;20055;-73
2021/07/15 15:31:09;;;;;;;6.20;5.20;;;28.80;86.80;;;;;;5968868;39;20044;-73
2021/07/15 15:35:14;;;;;;;7.90;4.80;;;28.70;86.10;;;;;;5956459;39;20437;-73
2021/07/15 15:39:16;;;;;;;8.30;5.20;;;28.50;86.40;;;;;;5965194;39;20058;-73
2021/07/15 15:43:18;;;;;;;6.20;4.68;;;28.40;86.90;;;;;;5958647;39;20162;-74
2021/07/15 15:47:20;;;;;;;8.18;5.05;;;28.50;86.80;;;;;;5959361;39;20086;-74
2021/07/15 15:51:22;;;;;;;6.88;4.75;;;28.50;86.70;;;;;;5959174;39;20053;-73
2021/07/15 15:55:25;;;;;;;13.60;4.18;;;28.50;88.10;;;;;;5965342;39;20046;-73
2021/07/15 15:59:28;;;;;;;17.33;4.65;;;28.40;89.30;;;;;;5967861;39;20682;-73
2021/07/15 16:03:30;;;;;;;8.98;4.18;;;28.40;89.70;;;;;;5958800;39;20059;-74
2021/07/15 16:07:33;;;;;;;15.23;4.28;;;28.40;90.10;;;;;;5956994;39;20051;-74
2021/07/15 16:11:36;;;;;;;10.07;4.20;;;28.40;90.10;;;;;;5973446;39;20332;-73
2021/07/15 16:15:41;;;;;;;9.70;4.05;;;28.30;90.10;;;;;;5961970;39;20426;-73
2021/07/15 16:19:43;;;;;;;9.88;4.07;;;28.30;89.70;;;;;;5962429;39;20069;-74
2021/07/15 16:23:45;;;;;;;13.90;4.00;;;28.30;90.00;;;;;;5966778;39;20056;-74
2021/07/15 16:27:48;;;;;;;9.63;3.75;;;28.20;89.80;;;;;;5970598;39;20032;-73
2021/07/15 16:31:50;;;;;;;11.95;4.00;;;28.20;89.90;;;;;;5963071;39;20361;-73
2021/07/15 16:35:57;;;;;;;10.10;3.42;;;28.20;89.80;;;;;;5971535;39;20062;-73
2021/07/15 16:39:59;;;;;;;13.35;3.83;;;28.20;89.80;;;;;;5961722;39;20048;-73
2021/07/15 16:44:00;;;;;;;16.63;4.25;;;28.10;89.40;;;;;;5966207;39;20101;-74
2021/07/15 16:48:02;;;;;;;15.85;3.83;;;27.90;89.60;;;;;;5959395;39;20051;-73
2021/07/15 16:52:06;;;;;;;10.35;3.33;;;27.90;90.10;;;;;;5967798;39;20292;-73
2021/07/15 16:56:08;;;;;;;10.85;4.07;;;27.80;89.80;;;;;;5960180;39;20144;-74
2021/07/15 17:00:12;;;;;;;11.45;4.25;;;27.70;90.00;;;;;;5971315;39;20087;-73
2021/07/15 17:04:15;;;;;;;13.80;4.00;;;27.70;90.10;;;;;;5968765;39;20141;-73
2021/07/15 17:08:17;;;;;;;9.82;3.38;;;27.60;89.80;;;;;;5957083;39;20563;-74
2021/07/15 17:12:20;;;;;;;10.52;3.70;;;27.50;90.00;;;;;;5961319;39;20066;-73
2021/07/15 17:16:22;;;;;;;11.38;4.07;;;27.40;90.10;;;;;;5969681;39;20076;-73
2021/07/15 17:20:25;;;;;;;12.05;3.35;;;27.30;90.10;;;;;;5969109;39;20156;-73
2021/07/15 17:24:27;;;;;;;11.38;3.63;;;27.20;89.80;;;;;;5972645;39;20099;-73
2021/07/15 17:28:30;;;;;;;12.00;3.35;;;27.00;90.10;;;;;;5968681;39;20224;-73
2021/07/15 17:32:33;;;;;;;14.20;4.20;;;26.30;89.70;;;;;;5971805;39;20075;-74
2021/07/15 17:36:35;;;;;;;11.30;3.90;;;26.80;90.20;;;;;;5973490;39;20047;-74
2021/07/15 17:40:37;;;;;;;18.05;3.60;;;26.80;90.20;;;;;;5975584;39;20047;-73
2021/07/15 17:44:49;;;;;;;8.90;3.22;;;26.80;90.10;;;;;;5972974;39;20059;-74
2021/07/15 17:48:50;;;;;;;14.57;3.72;;;26.80;90.20;;;;;;5959128;39;20043;-73
2021/07/15 17:52:52;;;;;;;10.05;3.85;;;26.70;90.00;;;;;;5970270;39;20290;-74
2021/07/15 17:56:54;;;;;;;10.48;3.28;;;26.70;90.10;;;;;;5971404;39;20035;-74
2021/07/15 18:00:56;;;;;;;11.63;3.47;;;26.50;90.00;;;;;;5973211;39;20059;-74
2021/07/15 18:04:58;;;;;;;13.75;3.50;;;26.50;90.20;;;;;;5964351;39;20364;-74
2021/07/15 18:09:00;;;;;;;12.85;3.05;;;26.40;90.20;;;;;;5950328;39;20106;-74
2021/07/15 18:13:04;;;;;;;9.85;2.95;;;26.20;90.30;;;;;;5968995;39;20044;-74
2021/07/15 18:17:08;;;;;;;12.98;3.47;;;26.20;90.50;;;;;;5970225;39;20047;-74
2021/07/15 18:21:10;;;;;;;9.32;3.38;;;26.10;90.30;;;;;;5970601;39;20061;-74
2021/07/15 18:25:15;;;;;;;13.43;3.40;;;26.10;90.50;;;;;;5966921;39;20427;-74
2021/07/15 18:29:16;;;;;;;14.90;3.15;;;25.90;90.30;;;;;;5965917;39;20040;-74
2021/07/15 18:33:19;;;;;;;11.10;2.70;;;25.80;90.30;;;;;;5966101;39;20056;-74
2021/07/15 18:37:20;;;;;;;11.85;3.63;;;25.60;90.50;;;;;;5970866;39;20095;-74
2021/07/15 18:41:22;;;;;;;12.02;3.47;;;25.60;90.40;;;;;;5959236;39;20051;-74
2021/07/15 18:45:27;;;;;;;8.10;3.53;;;25.60;90.50;;;;;;5967871;39;20328;-74
2021/07/15 18:49:30;;;;;;;9.13;3.33;;;25.40;90.40;;;;;;5961001;39;20040;-74
2021/07/15 18:53:34;;;;;;;14.13;3.65;;;25.40;90.50;;;;;;5957351;39;20063;-74
2021/07/15 18:57:37;;;;;;;13.57;4.38;;;25.20;90.60;;;;;;5957894;39;20056;-74
2021/07/15 19:01:39;;;;;;;11.10;3.88;;;25.00;90.50;;;;;;5958273;39;20109;-75
2021/07/15 19:05:41;;;;;;;10.80;3.63;;;24.90;90.40;;;;;;5961458;39;20058;-74
2021/07/15 19:09:43;;;;;;;14.30;3.28;;;24.80;90.60;;;;;;5970874;39;20059;-74
2021/07/15 19:13:45;;;;;;;9.52;3.10;;;24.70;90.50;;;;;;5969028;39;20063;-75
2021/07/15 19:17:47;;;;;;;12.25;3.92;;;24.60;90.40;;;;;;5963613;39;20040;-74
2021/07/15 19:21:49;;;;;;;9.52;3.00;;;24.50;90.60;;;;;;5961304;39;20520;-74
2021/07/15 19:25:51;;;;;;;12.45;4.25;;;24.50;90.60;;;;;;5962620;39;20063;-74
2021/07/15 19:29:53;;;;;;;12.52;3.13;;;24.30;90.60;;;;;;5973104;39;20056;-74
2021/07/15 19:33:55;;;;;;;11.52;3.30;;;24.10;90.60;;;;;;5959163;39;20043;-74
2021/07/15 19:37:57;;;;;;;11.60;3.30;;;24.10;90.50;;;;;;5964541;39;20105;-75
2021/07/15 19:41:59;;;;;;;12.75;3.60;;;23.90;90.70;;;;;;5962833;39;20656;-75
2021/07/15 19:46:01;;;;;;;14.75;3.60;;;23.70;90.90;;;;;;5962743;39;20306;-76
2021/07/15 19:50:08;;;;;;;13.63;3.25;;;23.60;90.90;;;;;;5964034;39;20047;-75
2021/07/15 19:54:10;;;;;;;11.98;3.40;;;23.50;90.90;;;;;;5962789;39;20054;-74
2021/07/15 19:58:12;;;;;;;12.55;3.60;;;23.30;91.20;;;;;;5957636;39;20395;-74
2021/07/15 20:02:14;;;;;;;9.60;3.30;;;23.30;91.20;;;;;;5972484;39;20043;-75
2021/07/15 20:06:16;;;;;;;11.57;3.67;;;23.20;91.20;;;;;;5972166;39;20050;-74
2021/07/15 20:10:20;;;;;;;15.55;4.20;;;23.10;91.30;;;;;;5957713;39;20075;-75
2021/07/15 20:14:22;;;;;;;11.77;3.60;;;23.20;91.30;;;;;;5972124;39;20040;-74
2021/07/15 20:18:24;;;;;;;11.25;3.33;;;22.80;91.60;;;;;;5961985;39;20062;-74
2021/07/15 20:22:25;;;;;;;15.82;3.92;;;22.70;91.50;;;;;;5970309;39;20223;-74
2021/07/15 20:26:27;;;;;;;14.10;3.58;;;22.60;91.80;;;;;;5971903;39;20052;-74
2021/07/15 20:30:30;;;;;;;13.45;3.33;;;22.90;91.80;;;;;;5971320;39;20095;-74
2021/07/15 20:34:32;;;;;;;14.13;3.38;;;22.40;91.70;;;;;;5963998;39;20062;-74
2021/07/15 20:38:34;;;;;;;18.83;3.67;;;22.40;91.70;;;;;;5962429;39;20087;-74
2021/07/15 20:42:41;;;;;;;12.68;3.42;;;22.30;91.80;;;;;;5966628;39;20051;-74
2021/07/15 20:46:42;;;;;;;14.35;3.53;;;22.00;92.00;;;;;;5964612;39;20415;-74
2021/07/15 20:50:44;;;;;;;13.70;3.72;;;21.50;92.00;;;;;;5973124;39;20443;-74
2021/07/15 20:54:46;;;;;;;16.17;4.13;;;21.80;92.10;;;;;;5963451;39;20052;-74
2021/07/15 20:58:48;;;;;;;15.63;3.90;;;21.80;92.20;;;;;;5962847;39;20416;-74
2021/07/15 21:02:50;;;;;;;13.52;3.53;;;21.70;92.30;;;;;;5959950;39;20454;-74
2021/07/15 21:06:52;;;;;;;13.32;4.03;;;21.50;92.50;;;;;;5963302;39;20052;-74
2021/07/15 21:10:59;;;;;;;15.20;3.22;;;21.40;92.60;;;;;;5957918;39;20403;-73